Time;durP1;ratioP1;P1;durP2;ratioP2;P2;SDS_P1;SDS_P2;PMS_P1;PMS_P2;Temp;Humidity;BMP_temperature;BMP_pressure;BME280_temperature;BME280_humidity;BME280_pressure;Samples;Min_cycle;Max_cycle;Signal;HPM_P1;HPM_P2
2023/06/24 00:01:40;;;;;;;;;;;;;;;18.27;94.70;101745.03;4139287;28;20357;-65
2023/06/24 00:03:46;;;;;;;;;;;;;;;18.27;95.40;101748.59;4136308;28;20448;-65
2023/06/24 00:05:49;;;;;;;;;;;;;;;18.28;95.49;101747.56;4138280;28;20008;-65
2023/06/24 00:07:52;;;;;;;;;;;;;;;18.30;95.71;101752.84;4138901;28;20360;-65
2023/06/24 00:09:55;;;;;;;;;;;;;;;18.34;95.82;101749.50;4138604;28;20020;-64
2023/06/24 00:11:58;;;;;;;;;;;;;;;18.35;95.90;101751.19;4138667;28;20013;-64
2023/06/24 00:14:00;;;;;;;;;;;;;;;18.40;95.87;101750.56;4137663;28;20013;-65
2023/06/24 00:16:02;;;;;;;;;;;;;;;18.42;95.66;101756.69;4139154;28;20013;-65
2023/06/24 00:18:06;;;;;;;;;;;;;;;18.40;95.54;101758.78;4137553;28;20024;-64
2023/06/24 00:20:10;;;;;;;;;;;;;;;18.37;95.48;101754.56;4134107;28;20020;-64
2023/06/24 00:22:12;;;;;;;;;;;;;;;18.34;95.89;101760.44;4136396;28;20017;-64
2023/06/24 00:24:15;;;;;;;;;;;;;;;18.31;95.72;101766.31;4138342;28;20605;-64
2023/06/24 00:26:17;;;;;;;;;;;;;;;18.25;95.97;101769.84;4136977;28;19988;-64
2023/06/24 00:28:19;;;;;;;;;;;;;;;18.22;96.12;101774.88;4133592;28;20021;-63
2023/06/24 00:30:21;;;;;;;;;;;;;;;18.19;96.77;101774.22;4135699;28;20020;-64
2023/06/24 00:32:23;;;;;;;;;;;;;;;18.18;97.11;101779.91;4138497;28;20024;-64
2023/06/24 00:34:25;;;;;;;;;;;;;;;18.16;97.28;101769.16;4138654;28;20424;-64
2023/06/24 00:36:27;;;;;;;;;;;;;;;18.16;97.28;101771.06;4139183;28;20013;-64
2023/06/24 00:38:32;;;;;;;;;;;;;;;18.13;97.67;101776.94;4137749;28;20028;-64
2023/06/24 00:40:35;;;;;;;;;;;;;;;18.12;97.85;101773.38;4121393;28;19964;-64
2023/06/24 00:42:37;;;;;;;;;;;;;;;18.10;97.84;101767.25;4133390;28;20356;-64
2023/06/24 00:44:39;;;;;;;;;;;;;;;18.10;98.32;101771.88;4138358;28;20020;-64
2023/06/24 00:46:41;;;;;;;;;;;;;;;18.10;98.43;101769.13;4139251;28;20023;-63
2023/06/24 00:48:44;;;;;;;;;;;;;;;18.10;98.78;101774.59;4137243;28;20023;-64
2023/06/24 00:50:47;;;;;;;;;;;;;;;18.09;98.76;101771.03;4132739;28;19929;-64
2023/06/24 00:52:49;;;;;;;;;;;;;;;18.06;98.69;101776.91;4134577;28;20020;-63
2023/06/24 00:54:52;;;;;;;;;;;;;;;18.05;99.20;101777.94;4137813;28;20009;-64
2023/06/24 00:56:56;;;;;;;;;;;;;;;18.05;99.14;101788.03;4139585;28;20017;-64
2023/06/24 00:58:58;;;;;;;;;;;;;;;18.01;99.20;101785.72;4139036;28;19976;-63
2023/06/24 01:01:01;;;;;;;;;;;;;;;17.99;99.25;101779.59;4139580;28;20053;-65
2023/06/24 01:03:03;;;;;;;;;;;;;;;17.98;99.27;101779.81;4122029;28;20017;-61
2023/06/24 01:05:07;;;;;;;;;;;;;;;17.97;99.28;101783.56;4139237;28;20056;-64
2023/06/24 01:07:10;;;;;;;;;;;;;;;17.95;99.78;101785.69;4139912;28;20464;-64
2023/06/24 01:09:13;;;;;;;;;;;;;;;17.95;99.91;101783.78;4121416;28;20020;-64
2023/06/24 01:11:15;;;;;;;;;;;;;;;17.94;99.79;101786.72;4137546;28;20019;-64
2023/06/24 01:13:18;;;;;;;;;;;;;;;17.94;99.94;101784.81;4137717;28;20021;-64
2023/06/24 01:15:21;;;;;;;;;;;;;;;17.93;100.00;101772.22;4135354;28;20019;-64
2023/06/24 01:17:24;;;;;;;;;;;;;;;17.91;99.99;101774.28;4137114;28;20016;-64
2023/06/24 01:19:47;;;;;;;;;;;;;;;17.89;100.00;101768.19;4136738;28;20024;-64
2023/06/24 01:21:51;;;;;;;;;;;;;;;17.87;100.00;101769.38;4131585;28;20021;-64
2023/06/24 01:24:18;;;;;;;;;;;;;;;17.86;100.00;101770.44;4137973;28;20056;-61
2023/06/24 01:26:21;;;;;;;;;;;;;;;17.85;100.00;101775.03;4139718;28;19980;-65
2023/06/24 01:28:35;;;;;;;;;;;;;;;17.82;99.99;101770.84;4134724;28;20060;-62
2023/06/24 01:30:41;;;;;;;;;;;;;;;17.81;100.00;101768.31;4139244;28;20459;-64
2023/06/24 01:32:46;;;;;;;;;;;;;;;17.80;100.00;101767.44;4138303;28;20025;-64
2023/06/24 01:34:50;;;;;;;;;;;;;;;17.80;100.00;101767.44;4136953;28;20016;-62
2023/06/24 01:36:54;;;;;;;;;;;;;;;17.79;100.00;101756.72;4134055;28;20392;-64
2023/06/24 01:38:56;;;;;;;;;;;;;;;17.76;100.00;101765.34;4133673;28;20020;-61
2023/06/24 01:40:58;;;;;;;;;;;;;;;17.75;100.00;101758.19;4136681;28;20024;-66
2023/06/24 01:43:01;;;;;;;;;;;;;;;17.73;100.00;101761.13;4139472;28;20020;-65
2023/06/24 01:45:04;;;;;;;;;;;;;;;17.71;100.00;101749.56;4121863;28;20009;-63
2023/06/24 01:47:06;;;;;;;;;;;;;;;17.71;100.00;101751.41;4129520;28;19960;-64
2023/06/24 01:49:10;;;;;;;;;;;;;;;17.71;100.00;101748.69;4135371;28;20024;-64
2023/06/24 01:51:12;;;;;;;;;;;;;;;17.72;100.00;101744.91;4139359;28;20025;-62
2023/06/24 01:53:17;;;;;;;;;;;;;;;17.71;99.78;101749.56;4136696;28;20435;-66
2023/06/24 01:55:19;;;;;;;;;;;;;;;17.68;99.67;101752.69;4138555;28;20032;-66
2023/06/24 01:57:23;;;;;;;;;;;;;;;17.65;99.54;101747.63;4136984;28;20024;-65
2023/06/24 01:59:25;;;;;;;;;;;;;;;17.64;99.50;101751.38;4138858;28;20722;-66
2023/06/24 02:01:27;;;;;;;;;;;;;;;17.62;99.42;101754.31;4140493;28;20379;-66
2023/06/24 02:03:29;;;;;;;;;;;;;;;17.61;99.38;101762.69;4141579;28;20020;-65
2023/06/24 02:05:33;;;;;;;;;;;;;;;17.58;99.09;101763.09;4141330;28;20029;-65
2023/06/24 02:07:35;;;;;;;;;;;;;;;17.55;99.39;101747.94;4141532;28;20049;-61
2023/06/24 02:09:37;;;;;;;;;;;;;;;17.54;99.46;101749.00;4140869;28;20087;-66
2023/06/24 02:11:39;;;;;;;;;;;;;;;17.55;99.56;101749.84;4124504;28;20629;-61
2023/06/24 02:13:41;;;;;;;;;;;;;;;17.55;99.34;101753.41;4136831;28;20358;-61
2023/06/24 02:15:50;;;;;;;;;;;;;;;17.54;99.19;101748.13;4123231;28;20433;-64
2023/06/24 02:17:56;;;;;;;;;;;;;;;17.54;99.17;101745.41;4141554;28;20027;-65
2023/06/24 02:19:58;;;;;;;;;;;;;;;17.53;99.34;101755.50;4140210;28;20021;-65
2023/06/24 02:22:04;;;;;;;;;;;;;;;17.55;99.18;101750.66;4140714;28;20024;-64
2023/06/24 02:24:06;;;;;;;;;;;;;;;17.57;99.11;101742.28;4139787;28;20025;-64
2023/06/24 02:26:08;;;;;;;;;;;;;;;17.58;99.00;101742.09;4137696;28;20029;-64
2023/06/24 02:28:10;;;;;;;;;;;;;;;17.62;98.96;101746.13;4140549;28;20024;-65
2023/06/24 02:30:13;;;;;;;;;;;;;;;17.63;98.62;101746.94;4123129;28;20025;-65
2023/06/24 02:32:15;;;;;;;;;;;;;;;17.63;98.52;101756.00;4130180;28;20320;-64
2023/06/24 02:34:18;;;;;;;;;;;;;;;17.63;98.32;101753.28;4138371;28;20016;-65
2023/06/24 02:36:20;;;;;;;;;;;;;;;17.65;97.79;101753.06;4134882;28;20035;-65
2023/06/24 02:38:23;;;;;;;;;;;;;;;17.64;97.47;101752.22;4140796;28;20028;-64
2023/06/24 02:40:26;;;;;;;;;;;;;;;17.62;97.29;101753.47;4139024;28;20017;-64
2023/06/24 02:42:28;;;;;;;;;;;;;;;17.62;96.83;101750.75;4140650;28;20032;-64
2023/06/24 02:44:29;;;;;;;;;;;;;;;17.62;96.67;101753.47;4133784;28;20414;-64
2023/06/24 02:46:31;;;;;;;;;;;;;;;17.62;96.17;101743.38;4140569;28;20344;-64
2023/06/24 02:48:33;;;;;;;;;;;;;;;17.62;95.82;101762.50;4140448;28;20013;-65
2023/06/24 02:50:35;;;;;;;;;;;;;;;17.62;95.33;101770.69;4132913;28;20013;-65
2023/06/24 02:52:38;;;;;;;;;;;;;;;17.61;94.94;101771.72;4122360;28;20033;-64
2023/06/24 02:54:45;;;;;;;;;;;;;;;17.58;94.70;101774.84;4137746;28;20020;-64
2023/06/24 02:57:15;;;;;;;;;;;;;;;17.56;94.12;101774.22;4132032;28;20023;-64
2023/06/24 02:59:40;;;;;;;;;;;;;;;17.56;93.79;101774.22;4136925;28;20024;-65
2023/06/24 03:01:46;;;;;;;;;;;;;;;17.53;93.37;101780.09;4122793;28;20438;-65
2023/06/24 03:03:49;;;;;;;;;;;;;;;17.53;93.35;101776.50;4118002;28;20032;-64
2023/06/24 03:05:53;;;;;;;;;;;;;;;17.52;92.90;101770.19;4138506;28;20400;-62
2023/06/24 03:07:56;;;;;;;;;;;;;;;17.53;92.41;101782.81;4138684;28;20349;-64
2023/06/24 03:09:59;;;;;;;;;;;;;;;17.55;92.08;101782.63;4138926;28;20028;-64
2023/06/24 03:12:03;;;;;;;;;;;;;;;17.53;91.65;101787.44;4138866;28;20017;-65
2023/06/24 03:14:14;;;;;;;;;;;;;;;17.51;91.63;101786.78;4138068;28;20012;-64
2023/06/24 03:16:18;;;;;;;;;;;;;;;17.46;91.12;101780.03;4139021;28;20032;-64
2023/06/24 03:18:27;;;;;;;;;;;;;;;17.45;90.88;101794.72;4138726;28;20060;-64
2023/06/24 03:20:35;;;;;;;;;;;;;;;17.44;90.87;101792.19;4119609;28;20025;-64
2023/06/24 03:22:38;;;;;;;;;;;;;;;17.43;90.59;101788.63;4138615;28;20037;-65
2023/06/24 03:24:46;;;;;;;;;;;;;;;17.43;90.70;101794.09;4137620;28;20448;-64
2023/06/24 03:26:56;;;;;;;;;;;;;;;17.41;90.49;101798.03;4133997;28;20048;-64
2023/06/24 03:29:01;;;;;;;;;;;;;;;17.39;90.68;101802.88;4129361;28;20016;-64
2023/06/24 03:31:03;;;;;;;;;;;;;;;17.39;90.40;101803.69;4139577;28;20016;-64
2023/06/24 03:33:05;;;;;;;;;;;;;;;17.38;90.29;101807.50;4138254;28;20017;-64
2023/06/24 03:35:08;;;;;;;;;;;;;;;17.35;90.17;101801.56;4138955;28;20013;-63
2023/06/24 03:37:10;;;;;;;;;;;;;;;17.33;90.18;101804.47;4138697;28;20831;-64
2023/06/24 03:39:15;;;;;;;;;;;;;;;17.34;90.24;101806.19;4137394;28;20013;-64
2023/06/24 03:41:18;;;;;;;;;;;;;;;17.33;90.00;101814.56;4137476;28;20386;-64
2023/06/24 03:43:21;;;;;;;;;;;;;;;17.33;89.80;101809.09;4139340;28;20370;-65
2023/06/24 03:45:25;;;;;;;;;;;;;;;17.35;89.97;101809.75;4137335;28;20005;-65
2023/06/24 03:47:27;;;;;;;;;;;;;;;17.35;89.45;101807.00;4139205;28;20025;-64
2023/06/24 03:49:29;;;;;;;;;;;;;;;17.35;89.63;101805.16;4121922;28;20025;-64
2023/06/24 03:51:31;;;;;;;;;;;;;;;17.35;89.61;101813.34;4139105;28;20012;-64
2023/06/24 03:53:34;;;;;;;;;;;;;;;17.35;89.24;101820.66;4121959;28;20604;-64
2023/06/24 03:55:36;;;;;;;;;;;;;;;17.33;89.22;101820.03;4137250;28;20364;-65
2023/06/24 03:57:38;;;;;;;;;;;;;;;17.31;89.20;101817.50;4138260;28;20024;-65
2023/06/24 03:59:41;;;;;;;;;;;;;;;17.30;89.06;101826.72;4135317;28;20028;-64
2023/06/24 04:01:43;;;;;;;;;;;;;;;17.30;89.27;101815.78;4129374;28;20921;-65
2023/06/24 04:03:45;;;;;;;;;;;;;;;17.31;89.01;101811.19;4139226;28;20013;-65
2023/06/24 04:05:47;;;;;;;;;;;;;;;17.31;89.16;101816.66;4138249;28;20551;-64
2023/06/24 04:07:50;;;;;;;;;;;;;;;17.32;88.82;101821.94;4137488;28;20016;-64
2023/06/24 04:09:54;;;;;;;;;;;;;;;17.32;88.60;101821.06;4136180;28;20024;-64
2023/06/24 04:11:56;;;;;;;;;;;;;;;17.29;88.68;101827.78;4137501;28;19980;-64
2023/06/24 04:13:58;;;;;;;;;;;;;;;17.26;88.81;101812.63;4137995;28;20048;-65
2023/06/24 04:16:02;;;;;;;;;;;;;;;17.27;89.03;101824.38;4121966;28;20028;-64
2023/06/24 04:18:04;;;;;;;;;;;;;;;17.25;88.89;101818.28;4118708;28;20424;-65
2023/06/24 04:20:08;;;;;;;;;;;;;;;17.22;88.73;101822.22;4138859;28;20352;-65
2023/06/24 04:22:10;;;;;;;;;;;;;;;17.19;88.89;101825.34;4136010;28;20072;-63
2023/06/24 04:24:12;;;;;;;;;;;;;;;17.19;88.91;101825.34;4138732;28;20362;-63
2023/06/24 04:26:14;;;;;;;;;;;;;;;17.19;88.82;101830.81;4120828;28;20025;-63
2023/06/24 04:28:18;;;;;;;;;;;;;;;17.19;88.96;101833.53;4138467;28;20364;-63
2023/06/24 04:30:20;;;;;;;;;;;;;;;17.20;88.96;101840.69;4136664;28;20024;-63
2023/06/24 04:32:23;;;;;;;;;;;;;;;17.22;88.75;101837.78;4135590;28;20019;-63
2023/06/24 04:34:25;;;;;;;;;;;;;;;17.20;88.71;101839.88;4138702;28;20020;-63
2023/06/24 04:36:27;;;;;;;;;;;;;;;17.21;89.09;101836.94;4137153;28;20016;-63
2023/06/24 04:38:29;;;;;;;;;;;;;;;17.22;88.44;101838.59;4137359;28;20029;-62
2023/06/24 04:40:33;;;;;;;;;;;;;;;17.23;88.47;101839.47;4136441;28;20021;-63
2023/06/24 04:42:36;;;;;;;;;;;;;;;17.23;88.40;101837.56;4138194;28;20028;-63
2023/06/24 04:44:38;;;;;;;;;;;;;;;17.26;88.49;101841.81;4137888;28;20117;-63
2023/06/24 04:46:40;;;;;;;;;;;;;;;17.27;88.38;101846.22;4138714;28;20016;-63
2023/06/24 04:48:43;;;;;;;;;;;;;;;17.29;88.18;101847.72;4138354;28;20020;-63
2023/06/24 04:50:45;;;;;;;;;;;;;;;17.30;88.26;101851.28;4138078;28;20005;-63
2023/06/24 04:52:52;;;;;;;;;;;;;;;17.34;88.31;101852.59;4138245;28;20025;-63
2023/06/24 04:54:54;;;;;;;;;;;;;;;17.34;87.75;101854.50;4136115;28;20016;-63
2023/06/24 04:56:57;;;;;;;;;;;;;;;17.34;88.10;101859.97;4138764;28;20012;-62
2023/06/24 04:58:59;;;;;;;;;;;;;;;17.33;87.96;101861.00;4138046;28;20037;-63
2023/06/24 05:01:01;;;;;;;;;;;;;;;17.32;87.87;101862.88;4138228;28;20013;-63
2023/06/24 05:03:03;;;;;;;;;;;;;;;17.33;88.15;101861.00;4138708;28;20024;-63
2023/06/24 05:05:06;;;;;;;;;;;;;;;17.32;88.08;101862.00;4136537;28;20045;-63
2023/06/24 05:07:08;;;;;;;;;;;;;;;17.33;88.20;101861.00;4138363;28;20017;-62
2023/06/24 05:09:13;;;;;;;;;;;;;;;17.34;88.13;101859.97;4135172;28;20444;-62
2023/06/24 05:11:15;;;;;;;;;;;;;;;17.34;87.92;101855.34;4138848;28;20020;-62
2023/06/24 05:13:17;;;;;;;;;;;;;;;17.35;87.86;101854.31;4137946;28;20036;-62
2023/06/24 05:15:19;;;;;;;;;;;;;;;17.35;87.89;101858.91;4133514;28;20020;-65
2023/06/24 05:17:21;;;;;;;;;;;;;;;17.36;88.13;101861.44;4138383;28;20009;-64
2023/06/24 05:19:23;;;;;;;;;;;;;;;17.40;88.08;101853.72;4138494;28;20048;-64
2023/06/24 05:21:27;;;;;;;;;;;;;;;17.39;87.79;101855.59;4132509;28;20020;-64
2023/06/24 05:23:29;;;;;;;;;;;;;;;17.41;88.11;101849.94;4133882;28;20600;-63
2023/06/24 05:25:31;;;;;;;;;;;;;;;17.43;88.00;101864.25;4137550;28;20016;-63
2023/06/24 05:27:32;;;;;;;;;;;;;;;17.47;87.80;101865.53;4137819;28;20028;-63
2023/06/24 05:29:35;;;;;;;;;;;;;;;17.50;87.47;101870.59;4131417;28;20017;-63
2023/06/24 05:31:37;;;;;;;;;;;;;;;17.50;87.41;101872.50;4137569;28;20386;-63
2023/06/24 05:33:38;;;;;;;;;;;;;;;17.48;87.90;101868.06;4138637;28;20020;-64
2023/06/24 05:35:41;;;;;;;;;;;;;;;17.53;87.74;101872.94;4140120;28;20523;-63
2023/06/24 05:37:45;;;;;;;;;;;;;;;17.58;87.95;101878.66;4139479;28;20376;-64
2023/06/24 05:39:47;;;;;;;;;;;;;;;17.61;87.59;101867.34;4140758;28;20017;-64
2023/06/24 05:41:49;;;;;;;;;;;;;;;17.65;87.25;101873.28;4141099;28;20549;-64
2023/06/24 05:44:00;;;;;;;;;;;;;;;17.65;87.29;101873.28;4140620;28;20017;-64
2023/06/24 05:46:02;;;;;;;;;;;;;;;17.70;87.23;101879.00;4141247;28;20015;-64
2023/06/24 05:48:04;;;;;;;;;;;;;;;17.73;86.84;101889.53;4141381;28;20044;-64
2023/06/24 05:50:06;;;;;;;;;;;;;;;17.74;86.50;101882.16;4141131;28;20030;-63
2023/06/24 05:52:09;;;;;;;;;;;;;;;17.75;86.07;101878.41;4140641;28;20016;-64
2023/06/24 05:54:12;;;;;;;;;;;;;;;17.76;86.30;101880.09;4141001;28;20021;-63
2023/06/24 05:56:14;;;;;;;;;;;;;;;17.79;86.25;101874.22;4139010;28;20033;-64
2023/06/24 05:58:16;;;;;;;;;;;;;;;17.81;86.35;101880.34;4140540;28;20443;-64
2023/06/24 06:00:18;;;;;;;;;;;;;;;17.84;85.98;101886.25;4140198;28;20025;-64
2023/06/24 06:02:21;;;;;;;;;;;;;;;17.87;85.73;101884.16;4141030;28;20010;-64
2023/06/24 06:04:22;;;;;;;;;;;;;;;17.89;85.65;101880.22;4140101;28;20005;-63
2023/06/24 06:06:24;;;;;;;;;;;;;;;17.92;85.63;101884.47;4141289;28;20401;-64
2023/06/24 06:08:26;;;;;;;;;;;;;;;17.94;85.43;101877.75;4135497;28;20841;-64
2023/06/24 06:10:30;;;;;;;;;;;;;;;17.97;85.50;101881.97;4136802;28;20479;-64
2023/06/24 06:12:32;;;;;;;;;;;;;;;17.97;85.28;101882.81;4140844;28;20009;-64
2023/06/24 06:14:34;;;;;;;;;;;;;;;17.99;85.47;101891.69;4140665;28;20008;-63
2023/06/24 06:16:36;;;;;;;;;;;;;;;18.03;85.37;101892.13;4140801;28;20020;-64
2023/06/24 06:18:38;;;;;;;;;;;;;;;18.05;85.12;101892.75;4137218;28;20024;-63
2023/06/24 06:20:40;;;;;;;;;;;;;;;18.07;85.05;101887.94;4140691;28;20022;-63
2023/06/24 06:22:42;;;;;;;;;;;;;;;18.11;84.88;101891.13;4140914;28;20044;-64
2023/06/24 06:24:44;;;;;;;;;;;;;;;18.11;84.80;101889.22;4140178;28;20653;-64
2023/06/24 06:26:47;;;;;;;;;;;;;;;18.15;84.68;101889.66;4140363;28;20012;-63
2023/06/24 06:28:49;;;;;;;;;;;;;;;18.17;84.62;101885.69;4140333;28;20024;-64
2023/06/24 06:30:53;;;;;;;;;;;;;;;18.18;84.28;101890.13;4140266;28;20012;-64
2023/06/24 06:32:55;;;;;;;;;;;;;;;18.19;84.11;101888.22;4107101;28;20013;-64
2023/06/24 06:34:57;;;;;;;;;;;;;;;18.21;83.82;101877.94;4107936;28;20485;-64
2023/06/24 06:36:59;;;;;;;;;;;;;;;18.23;83.57;101880.47;4108181;28;20016;-64
2023/06/24 06:39:01;;;;;;;;;;;;;;;18.25;83.52;101881.13;4108072;28;20029;-63
2023/06/24 06:41:03;;;;;;;;;;;;;;;18.27;83.31;101885.31;4108740;28;20058;-64
2023/06/24 06:43:06;;;;;;;;;;;;;;;18.28;83.20;101884.28;4104936;28;20341;-64
2023/06/24 06:45:09;;;;;;;;;;;;;;;18.30;83.09;101886.84;4105811;28;20013;-64
2023/06/24 06:47:11;;;;;;;;;;;;;;;18.32;83.18;101885.59;4108421;28;20017;-64
2023/06/24 06:49:15;;;;;;;;;;;;;;;18.34;82.84;101879.94;4107927;28;20361;-64
2023/06/24 06:51:18;;;;;;;;;;;;;;;18.36;82.29;101872.34;4108223;28;20025;-64
2023/06/24 06:53:20;;;;;;;;;;;;;;;18.35;82.35;101878.84;4104792;28;20017;-64
2023/06/24 06:55:22;;;;;;;;;;;;;;;18.35;82.11;101885.19;4107819;28;20045;-65
2023/06/24 06:57:24;;;;;;;;;;;;;;;18.35;82.24;101882.47;4120700;28;20455;-64
2023/06/24 06:59:28;;;;;;;;;;;;;;;18.37;82.30;101877.63;4106785;28;20017;-64
2023/06/24 07:01:30;;;;;;;;;;;;;;;18.40;82.15;101879.13;4108463;28;20021;-64
2023/06/24 07:03:32;;;;;;;;;;;;;;;18.43;81.97;101880.59;4108979;28;20057;-63
2023/06/24 07:05:34;;;;;;;;;;;;;;;18.44;81.59;101874.09;4107551;28;20441;-62
2023/06/24 07:07:37;;;;;;;;;;;;;;;18.47;81.76;101870.94;4106092;28;20029;-63
2023/06/24 07:09:39;;;;;;;;;;;;;;;18.49;81.72;101875.16;4107538;28;20022;-61
2023/06/24 07:11:41;;;;;;;;;;;;;;;18.51;81.49;101870.34;4107766;28;20012;-69
2023/06/24 07:13:44;;;;;;;;;;;;;;;18.56;81.55;101877.94;4109403;28;20038;-62
2023/06/24 07:15:48;;;;;;;;;;;;;;;18.60;81.61;101868.25;4105415;28;20030;-63
2023/06/24 07:17:50;;;;;;;;;;;;;;;18.64;81.34;101866.00;4107759;28;20017;-62
2023/06/24 07:19:52;;;;;;;;;;;;;;;18.66;80.43;101872.09;4107837;28;20038;-64
2023/06/24 07:21:54;;;;;;;;;;;;;;;18.65;79.67;101868.53;4103749;28;20013;-62
2023/06/24 07:23:56;;;;;;;;;;;;;;;18.66;79.33;101875.66;4107446;28;20013;-65
2023/06/24 07:25:58;;;;;;;;;;;;;;;18.68;79.09;101879.06;4107398;28;20043;-66
2023/06/24 07:28:00;;;;;;;;;;;;;;;18.70;78.89;101884.31;4108376;28;20033;-65
2023/06/24 07:30:02;;;;;;;;;;;;;;;18.73;78.77;101883.94;4108316;28;20037;-64
2023/06/24 07:32:07;;;;;;;;;;;;;;;18.74;78.27;101891.06;4126786;28;20464;-63
2023/06/24 07:34:09;;;;;;;;;;;;;;;18.75;78.00;101890.03;4139597;28;20012;-62
2023/06/24 07:36:13;;;;;;;;;;;;;;;18.76;78.22;101893.59;4140316;28;20017;-63
2023/06/24 07:38:15;;;;;;;;;;;;;;;18.75;78.14;101894.66;4139680;28;20544;-65
2023/06/24 07:40:17;;;;;;;;;;;;;;;18.73;78.06;101898.44;4139591;28;20000;-64
2023/06/24 07:42:19;;;;;;;;;;;;;;;18.73;77.93;101908.56;4139642;28;20036;-60
2023/06/24 07:44:21;;;;;;;;;;;;;;;18.72;77.96;101904.94;4136577;28;20017;-60
2023/06/24 07:46:23;;;;;;;;;;;;;;;18.76;78.00;101901.81;4139412;28;20028;-63
2023/06/24 07:48:26;;;;;;;;;;;;;;;18.78;77.42;101902.44;4139254;28;20028;-63
2023/06/24 07:50:28;;;;;;;;;;;;;;;18.80;76.99;101903.94;4138397;28;20463;-64
2023/06/24 07:52:30;;;;;;;;;;;;;;;18.81;76.21;101902.91;4139194;28;20599;-60
2023/06/24 07:54:32;;;;;;;;;;;;;;;18.81;75.32;101902.03;4139361;28;20646;-61
2023/06/24 07:56:35;;;;;;;;;;;;;;;18.83;75.45;101902.69;4138090;28;20028;-61
2023/06/24 07:58:38;;;;;;;;;;;;;;;18.86;74.59;101905.06;4139446;28;20015;-63
2023/06/24 08:00:39;;;;;;;;;;;;;;;18.87;74.15;101906.72;4138582;28;20009;-63
2023/06/24 08:02:41;;;;;;;;;;;;;;;18.87;74.36;101910.34;4139036;28;20012;-63
2023/06/24 08:04:45;;;;;;;;;;;;;;;18.88;73.76;101908.44;4139486;28;20032;-61
2023/06/24 08:06:47;;;;;;;;;;;;;;;18.90;73.94;101907.19;4133609;28;20021;-61
2023/06/24 08:08:49;;;;;;;;;;;;;;;18.91;74.29;101903.38;4132910;28;20024;-64
2023/06/24 08:10:51;;;;;;;;;;;;;;;18.95;74.54;101908.44;4138981;28;20026;-60
2023/06/24 08:12:53;;;;;;;;;;;;;;;18.96;74.33;101913.72;4139392;28;20021;-64
2023/06/24 08:14:55;;;;;;;;;;;;;;;19.00;74.67;101916.91;4138196;28;20028;-63
2023/06/24 08:16:58;;;;;;;;;;;;;;;19.01;74.36;101908.50;4139779;28;20028;-64
2023/06/24 08:19:00;;;;;;;;;;;;;;;18.99;72.56;101904.25;4139841;28;20017;-66
2023/06/24 08:21:03;;;;;;;;;;;;;;;18.99;72.40;101901.53;4140093;28;20021;-63
2023/06/24 08:23:05;;;;;;;;;;;;;;;18.99;73.26;101902.34;4137641;28;20016;-65
2023/06/24 08:25:08;;;;;;;;;;;;;;;19.03;73.62;101909.13;4138512;28;20357;-64
2023/06/24 08:27:10;;;;;;;;;;;;;;;19.06;72.76;101914.19;4137954;28;20037;-63
2023/06/24 08:29:12;;;;;;;;;;;;;;;19.06;72.31;101911.44;4139105;28;20012;-63
2023/06/24 08:31:16;;;;;;;;;;;;;;;19.09;72.58;101915.69;4138250;28;20395;-63
2023/06/24 08:33:21;;;;;;;;;;;;;;;19.09;72.11;101916.53;4122031;28;19979;-61
2023/06/24 08:35:24;;;;;;;;;;;;;;;19.12;72.85;101911.69;4135341;28;19929;-63
2023/06/24 08:37:28;;;;;;;;;;;;;;;19.14;73.20;101915.91;4137800;28;20028;-65
2023/06/24 08:39:31;;;;;;;;;;;;;;;19.17;73.25;101911.91;4135677;28;20017;-63
2023/06/24 08:41:33;;;;;;;;;;;;;;;19.19;73.18;101913.38;4138316;28;20022;-63
2023/06/24 08:43:38;;;;;;;;;;;;;;;19.20;71.97;101919.69;4138400;28;20012;-61
2023/06/24 08:45:40;;;;;;;;;;;;;;;19.21;72.07;101922.22;4137531;28;20355;-63
2023/06/24 08:47:42;;;;;;;;;;;;;;;19.21;71.96;101916.75;4135388;28;20100;-64
2023/06/24 08:49:45;;;;;;;;;;;;;;;19.22;72.31;101910.22;4135823;28;20386;-63
2023/06/24 08:51:47;;;;;;;;;;;;;;;19.25;71.91;101911.72;4138305;28;20049;-63
2023/06/24 08:53:51;;;;;;;;;;;;;;;19.24;72.23;101899.91;4136389;28;20040;-63
2023/06/24 08:55:54;;;;;;;;;;;;;;;19.27;72.82;101909.63;4138627;28;20025;-64
2023/06/24 08:57:56;;;;;;;;;;;;;;;19.29;72.60;101907.50;4138979;28;20036;-64
2023/06/24 08:59:58;;;;;;;;;;;;;;;19.30;71.63;101911.13;4137830;28;20017;-64
2023/06/24 09:01:59;;;;;;;;;;;;;;;19.33;72.28;101921.66;4137722;28;20378;-64
2023/06/24 09:04:02;;;;;;;;;;;;;;;19.35;72.38;101919.53;4135730;28;20012;-65
2023/06/24 09:06:04;;;;;;;;;;;;;;;19.36;72.17;101910.28;4139414;28;20439;-64
2023/06/24 09:08:05;;;;;;;;;;;;;;;19.37;71.89;101910.09;4137079;28;20023;-65
2023/06/24 09:10:10;;;;;;;;;;;;;;;19.40;71.57;101914.28;4138256;28;20021;-65
2023/06/24 09:12:14;;;;;;;;;;;;;;;19.43;70.30;101922.91;4137975;28;20024;-65
2023/06/24 09:14:16;;;;;;;;;;;;;;;19.46;71.46;101921.66;4136974;28;20020;-64
2023/06/24 09:16:18;;;;;;;;;;;;;;;19.46;70.38;101929.88;4139213;28;20012;-65
2023/06/24 09:18:20;;;;;;;;;;;;;;;19.45;69.32;101920.84;4138322;28;20027;-65
2023/06/24 09:20:22;;;;;;;;;;;;;;;19.44;69.19;101926.53;4138258;28;20017;-64
2023/06/24 09:22:25;;;;;;;;;;;;;;;19.44;69.96;101921.03;4137781;28;20020;-65
2023/06/24 09:24:28;;;;;;;;;;;;;;;19.44;69.83;101921.03;4137894;28;20032;-63
2023/06/24 09:26:31;;;;;;;;;;;;;;;19.45;70.39;101920.84;4137045;28;20032;-63
2023/06/24 09:28:33;;;;;;;;;;;;;;;19.47;70.78;101920.63;4135131;28;20032;-63
2023/06/24 09:30:36;;;;;;;;;;;;;;;19.48;69.37;101916.81;4136954;28;20076;-60
2023/06/24 09:32:38;;;;;;;;;;;;;;;19.51;68.42;101921.06;4136372;28;19975;-61
2023/06/24 09:34:40;;;;;;;;;;;;;;;19.51;68.32;101921.88;4139175;28;20349;-63
2023/06/24 09:36:43;;;;;;;;;;;;;;;19.50;67.23;101920.22;4138582;28;20016;-61
2023/06/24 09:38:45;;;;;;;;;;;;;;;19.49;68.11;101924.00;4138808;28;20041;-61
2023/06/24 09:40:47;;;;;;;;;;;;;;;19.50;68.91;101919.34;4135270;28;20052;-61
2023/06/24 09:42:51;;;;;;;;;;;;;;;19.54;68.24;101923.38;4138123;28;20024;-62
2023/06/24 09:44:54;;;;;;;;;;;;;;;19.57;67.14;101920.22;4135729;28;19999;-58
2023/06/24 09:46:56;;;;;;;;;;;;;;;19.57;66.99;101923.78;4137655;28;20024;-62
2023/06/24 09:48:58;;;;;;;;;;;;;;;19.58;66.56;101921.91;4136643;28;20016;-61
2023/06/24 09:51:00;;;;;;;;;;;;;;;19.58;68.14;101914.53;4138179;28;20028;-62
2023/06/24 09:53:02;;;;;;;;;;;;;;;19.58;67.83;101916.44;4138242;28;20024;-60
2023/06/24 09:55:05;;;;;;;;;;;;;;;19.59;68.12;101912.63;4138633;28;20448;-64
2023/06/24 09:57:09;;;;;;;;;;;;;;;19.61;68.93;101908.63;4121725;28;20580;-63
2023/06/24 09:59:13;;;;;;;;;;;;;;;19.61;69.01;101903.16;4138883;28;20021;-61
2023/06/24 10:01:16;;;;;;;;;;;;;;;19.63;68.30;101908.44;4122274;28;20350;-63
2023/06/24 10:03:18;;;;;;;;;;;;;;;19.65;66.79;101905.47;4138555;28;20032;-62
2023/06/24 10:05:20;;;;;;;;;;;;;;;19.65;65.88;101903.56;4138907;28;20017;-63
2023/06/24 10:07:22;;;;;;;;;;;;;;;19.65;66.95;101894.50;4138261;28;20016;-63
2023/06/24 10:09:24;;;;;;;;;;;;;;;19.67;68.02;101897.88;4137405;28;20008;-65
2023/06/24 10:11:26;;;;;;;;;;;;;;;19.67;68.09;101890.53;4138125;28;20028;-60
2023/06/24 10:13:28;;;;;;;;;;;;;;;19.68;68.31;101892.19;4136797;28;20068;-63
2023/06/24 10:15:34;;;;;;;;;;;;;;;19.69;67.81;101896.63;4119427;28;19930;-65
2023/06/24 10:17:36;;;;;;;;;;;;;;;19.70;68.25;101891.97;4137859;28;20028;-66
2023/06/24 10:19:39;;;;;;;;;;;;;;;19.71;67.96;101896.41;4125290;28;20004;-62
2023/06/24 10:21:50;;;;;;;;;;;;;;;19.73;68.01;101897.03;4140426;28;20394;-64
2023/06/24 10:23:52;;;;;;;;;;;;;;;19.74;67.94;101893.25;4142078;28;20044;-60
2023/06/24 10:25:54;;;;;;;;;;;;;;;19.76;67.85;101892.00;4139912;28;20029;-59
2023/06/24 10:27:57;;;;;;;;;;;;;;;19.77;67.79;101885.47;4142265;28;20025;-58
2023/06/24 10:30:02;;;;;;;;;;;;;;;19.79;67.71;101890.75;4124345;28;20460;-64
2023/06/24 10:32:07;;;;;;;;;;;;;;;19.82;67.41;101884.03;4141110;28;20021;-63